Neptune Horizon — 9HA3929 — position and weather

sailwx.info

Track history (hours):
 
Tides and Currents Weather Stations Pressure Air Temp Water Temp Dewpoint Dewpoint Depression Visibility Wind Speed Wind Dir Waves Ship Positions

Neptune Horizon

Last reported at 2018-Jan-23 15:07 UTC. Time now 2018-Jan-23 16:18 UTC.
Position N 39°34' W 000°03'.

Length 168 m; draft 8.3 m.

Type: Other ship. MMSI: 256488000.

Date/timePositionNaut miles runAvg speedWind from/ knotsBaromVisibWave heightAir tempDewpointWater temp
2018-Jan-23 15:07N 39°34' W 000°03'215.6
2018-Jan-23 15:00N 39°32' W 000°04'815.6
2018-Jan-23 14:30N 39°28' W 000°13'5 9.5
2018-Jan-23 14:01N 39°26' W 000°18'0 0.2
2018-Jan-23 13:28N 39°26' W 000°18'0 0.0
2018-Jan-23 12:58N 39°26' W 000°18'0 0.0
2018-Jan-23 12:28N 39°26' W 000°18'0 0.0
2018-Jan-23 11:58N 39°26' W 000°18'0 0.0
2018-Jan-23 11:28N 39°26' W 000°18'0 0.0
2018-Jan-23 10:58N 39°26' W 000°18'0 0.0
2018-Jan-23 10:28N 39°26' W 000°18'0 0.0
2018-Jan-23 09:58N 39°26' W 000°18'0 0.0
2018-Jan-23 09:28N 39°26' W 000°18'0 0.0
2018-Jan-23 08:58N 39°26' W 000°18'0 0.0
2018-Jan-23 08:28N 39°26' W 000°18'0 0.0
2018-Jan-23 07:58N 39°26' W 000°18'0 0.0
2018-Jan-23 07:28N 39°26' W 000°18'0 0.0
2018-Jan-23 06:58N 39°26' W 000°18'0 0.0
2018-Jan-23 06:28N 39°26' W 000°18'0 0.0
2018-Jan-23 05:58N 39°26' W 000°18'0 0.0
2018-Jan-23 05:30N 39°26' W 000°18'2 4.2
2018-Jan-23 05:00N 39°26' W 000°16'5 9.8
2018-Jan-23 04:30N 39°29' W 000°11'815.0
2018-Jan-23 04:00N 39°34' W 000°04'11215.4
2018-Jan-22 20:44N 40°51' E 001°42'415.3
2018-Jan-22 20:30N 40°54' E 001°45'815.4
2018-Jan-22 20:00N 40°60' E 001°52'815.5
2018-Jan-22 19:30N 41°06' E 001°58'815.5
2018-Jan-22 19:00N 41°12' E 002°05'714.1
2018-Jan-22 18:30N 41°17' E 002°10'3 6.3
2018-Jan-22 18:01N 41°20' E 002°09'0 0.5
2018-Jan-22 17:30N 41°20' E 002°09'0 0.0
2018-Jan-22 17:00N 41°20' E 002°09'0 0.0
2018-Jan-22 16:30N 41°20' E 002°09'0 0.0
2018-Jan-22 16:00N 41°20' E 002°09'0 0.0
2018-Jan-22 15:30N 41°20' E 002°09'0 0.0
2018-Jan-22 15:00N 41°20' E 002°09'0 0.0
2018-Jan-22 14:30N 41°20' E 002°09'0 0.0
2018-Jan-22 14:00N 41°20' E 002°09'0 0.0
2018-Jan-22 13:30N 41°20' E 002°09'0 0.0
2018-Jan-22 13:00N 41°20' E 002°09'0 0.0
2018-Jan-22 12:30N 41°20' E 002°09'0 0.0
2018-Jan-22 12:00N 41°20' E 002°09'0 0.0
2018-Jan-22 11:30N 41°20' E 002°09'0 0.0
2018-Jan-22 11:00N 41°20' E 002°09'0 0.0
2018-Jan-22 10:30N 41°20' E 002°09'0 0.0
2018-Jan-22 10:00N 41°20' E 002°09'0 0.0
2018-Jan-22 09:30N 41°20' E 002°09'0 0.0
2018-Jan-22 09:00N 41°20' E 002°09'0 0.0
2018-Jan-22 08:30N 41°20' E 002°09'0 0.0
2018-Jan-22 08:00N 41°20' E 002°09'0 0.0
2018-Jan-22 07:30N 41°20' E 002°09'0 0.0
2018-Jan-22 07:00N 41°20' E 002°09'0 0.0
2018-Jan-22 06:30N 41°20' E 002°09'0 0.0
2018-Jan-22 06:00N 41°20' E 002°09'0 0.0
2018-Jan-22 05:30N 41°20' E 002°09'0 0.0
2018-Jan-22 05:00N 41°20' E 002°09'0 0.0
2018-Jan-22 04:30N 41°20' E 002°09'0 0.0
2018-Jan-22 04:00N 41°20' E 002°09'0 0.0
2018-Jan-22 03:30N 41°20' E 002°09'0 0.0
2018-Jan-22 03:00N 41°20' E 002°09'0 0.0
2018-Jan-22 02:30N 41°20' E 002°09'0 0.0
2018-Jan-22 02:00N 41°20' E 002°09'0 0.0
2018-Jan-22 01:30N 41°20' E 002°09'0 0.0
2018-Jan-22 01:00N 41°20' E 002°09'0 0.0
2018-Jan-22 00:30N 41°20' E 002°09'0 0.0
2018-Jan-22 00:00N 41°20' E 002°09'0 0.0
2018-Jan-21 23:30N 41°20' E 002°09'0 0.0
2018-Jan-21 23:00N 41°20' E 002°09'0 0.0
2018-Jan-21 22:30N 41°20' E 002°09'0 0.0
2018-Jan-21 22:00N 41°20' E 002°09'2 3.3
2018-Jan-21 21:30N 41°19' E 002°10'1 2.5
2018-Jan-21 21:00N 41°19' E 002°12'0 0.4
2018-Jan-21 20:29N 41°19' E 002°12'0 0.1
2018-Jan-21 19:59N 41°19' E 002°12'0 0.1
2018-Jan-21 19:29N 41°19' E 002°12'0 0.1
2018-Jan-21 18:59N 41°19' E 002°12'0 0.0
2018-Jan-21 18:29N 41°19' E 002°12'0 0.0
2018-Jan-21 17:59N 41°19' E 002°12'0 0.0
2018-Jan-21 17:29N 41°19' E 002°12'0 0.0
2018-Jan-21 16:59N 41°19' E 002°12'0 0.1
2018-Jan-21 16:29N 41°19' E 002°12'0 0.0
2018-Jan-21 15:59N 41°19' E 002°12'0 0.1
2018-Jan-21 15:29N 41°19' E 002°12'0 0.1
2018-Jan-21 14:59N 41°19' E 002°12'0 0.1
2018-Jan-21 14:29N 41°19' E 002°12'0 0.0
2018-Jan-21 13:59N 41°19' E 002°12'0 0.0
2018-Jan-21 13:29N 41°19' E 002°12'0 0.1
2018-Jan-21 12:59N 41°19' E 002°12'0 0.1
2018-Jan-21 12:29N 41°19' E 002°12'0 0.0
2018-Jan-21 11:59N 41°19' E 002°12'0 0.1
2018-Jan-21 11:29N 41°19' E 002°12'0 0.0
2018-Jan-21 10:59N 41°19' E 002°12'0 0.0
2018-Jan-21 10:29N 41°19' E 002°12'0 0.0
2018-Jan-21 09:59N 41°19' E 002°12'0 0.0
2018-Jan-21 09:29N 41°19' E 002°12'0 0.1
2018-Jan-21 08:59N 41°19' E 002°12'0 0.1
2018-Jan-21 08:29N 41°19' E 002°12'0 0.0
2018-Jan-21 07:59N 41°19' E 002°12'0 0.0
2018-Jan-21 07:29N 41°19' E 002°12'0 0.2
2018-Jan-21 06:59N 41°19' E 002°12'0 0.0
2018-Jan-21 06:29N 41°19' E 002°12'0 0.2
2018-Jan-21 06:00N 41°19' E 002°12'2 5.0
2018-Jan-21 05:30N 41°19' E 002°15'4 7.8
2018-Jan-21 05:01N 41°21' E 002°20'4 8.1
2018-Jan-21 04:30N 41°23' E 002°24'4 8.3
2018-Jan-21 04:00N 41°26' E 002°28'4 8.2
2018-Jan-21 03:29N 41°28' E 002°33'4 8.1
2018-Jan-21 03:00N 41°30' E 002°37'4 8.5
2018-Jan-21 02:30N 41°33' E 002°42'13110.2
2018-Jan-20 13:44N 43°01' E 004°52'4 9.8
2018-Jan-20 13:19N 43°04' E 004°56'3 9.6
2018-Jan-20 13:00N 43°06' E 004°59'6 9.7
2018-Jan-20 12:26N 43°10' E 005°04'4 9.6
2018-Jan-20 11:59N 43°13' E 005°08'510.0
2018-Jan-20 11:30N 43°17' E 005°13'510.1
2018-Jan-20 11:00N 43°20' E 005°18'2 0.1
2018-Jan-19 11:51N 43°20' E 005°21'0 0.3
2018-Jan-19 11:30N 43°20' E 005°21'3 5.7
2018-Jan-19 11:00N 43°19' E 005°17'5 9.3
2018-Jan-19 10:30N 43°15' E 005°17'7811.6
2018-Jan-19 03:51N 43°00' E 007°01'413.0
2018-Jan-19 03:31N 43°00' E 007°07'713.2
2018-Jan-19 03:00N 43°01' E 007°16'913.5
2018-Jan-19 02:21N 43°02' E 007°28'512.9
2018-Jan-19 01:58N 43°02' E 007°35'612.6
2018-Jan-19 01:30N 43°02' E 007°43'6212.6
2018-Jan-18 20:36N 43°07' E 009°07'111.2
2018-Jan-18 20:29N 43°07' E 009°09'510.0
2018-Jan-18 20:00N 43°08' E 009°16'1311.1
2018-Jan-18 18:48N 43°08' E 009°34'3 9.9
2018-Jan-18 18:30N 43°06' E 009°37'1812.1
2018-Jan-18 17:03N 42°50' E 009°48'112.9
2018-Jan-18 17:00N 42°50' E 009°49'2412.8
2018-Jan-18 15:08N 42°36' E 010°14'1012.7
2018-Jan-18 14:20N 42°30' E 010°26'712.7
2018-Jan-18 13:49N 42°26' E 010°33'  
Track history (hours):
 
Tides and Currents Weather Stations Pressure Air Temp Water Temp Dewpoint Dewpoint Depression Visibility Wind Speed Wind Dir Waves Ship Positions

Neptune Horizon

Last reported at 2018-Jan-23 15:07 UTC. Time now 2018-Jan-23 16:18 UTC.
Position N 39°34' W 000°03'.

Length 168 m; draft 8.3 m.

Type: Other ship. MMSI: 256488000.

Date/timePositionNaut miles runAvg speedWind from/ knotsBaromVisibWave heightAir tempDewpointWater temp
2018-Jan-23 15:07N 39°34' W 000°03'215.6
2018-Jan-23 15:00N 39°32' W 000°04'815.6
2018-Jan-23 14:30N 39°28' W 000°13'5 9.5
2018-Jan-23 14:01N 39°26' W 000°18'0 0.2
2018-Jan-23 13:28N 39°26' W 000°18'0 0.0
2018-Jan-23 12:58N 39°26' W 000°18'0 0.0
2018-Jan-23 12:28N 39°26' W 000°18'0 0.0
2018-Jan-23 11:58N 39°26' W 000°18'0 0.0
2018-Jan-23 11:28N 39°26' W 000°18'0 0.0
2018-Jan-23 10:58N 39°26' W 000°18'0 0.0
2018-Jan-23 10:28N 39°26' W 000°18'0 0.0
2018-Jan-23 09:58N 39°26' W 000°18'0 0.0
2018-Jan-23 09:28N 39°26' W 000°18'0 0.0
2018-Jan-23 08:58N 39°26' W 000°18'0 0.0
2018-Jan-23 08:28N 39°26' W 000°18'0 0.0
2018-Jan-23 07:58N 39°26' W 000°18'0 0.0
2018-Jan-23 07:28N 39°26' W 000°18'0 0.0
2018-Jan-23 06:58N 39°26' W 000°18'0 0.0
2018-Jan-23 06:28N 39°26' W 000°18'0 0.0
2018-Jan-23 05:58N 39°26' W 000°18'0 0.0
2018-Jan-23 05:30N 39°26' W 000°18'2 4.2
2018-Jan-23 05:00N 39°26' W 000°16'5 9.8
2018-Jan-23 04:30N 39°29' W 000°11'815.0
2018-Jan-23 04:00N 39°34' W 000°04'11215.4
2018-Jan-22 20:44N 40°51' E 001°42'415.3
2018-Jan-22 20:30N 40°54' E 001°45'815.4
2018-Jan-22 20:00N 40°60' E 001°52'815.5
2018-Jan-22 19:30N 41°06' E 001°58'815.5
2018-Jan-22 19:00N 41°12' E 002°05'714.1
2018-Jan-22 18:30N 41°17' E 002°10'3 6.3
2018-Jan-22 18:01N 41°20' E 002°09'0 0.5
2018-Jan-22 17:30N 41°20' E 002°09'0 0.0
2018-Jan-22 17:00N 41°20' E 002°09'0 0.0
2018-Jan-22 16:30N 41°20' E 002°09'0 0.0
2018-Jan-22 16:00N 41°20' E 002°09'0 0.0
2018-Jan-22 15:30N 41°20' E 002°09'0 0.0
2018-Jan-22 15:00N 41°20' E 002°09'0 0.0
2018-Jan-22 14:30N 41°20' E 002°09'0 0.0
2018-Jan-22 14:00N 41°20' E 002°09'0 0.0
2018-Jan-22 13:30N 41°20' E 002°09'0 0.0
2018-Jan-22 13:00N 41°20' E 002°09'0 0.0
2018-Jan-22 12:30N 41°20' E 002°09'0 0.0
2018-Jan-22 12:00N 41°20' E 002°09'0 0.0
2018-Jan-22 11:30N 41°20' E 002°09'0 0.0
2018-Jan-22 11:00N 41°20' E 002°09'0 0.0
2018-Jan-22 10:30N 41°20' E 002°09'0 0.0
2018-Jan-22 10:00N 41°20' E 002°09'0 0.0
2018-Jan-22 09:30N 41°20' E 002°09'0 0.0
2018-Jan-22 09:00N 41°20' E 002°09'0 0.0
2018-Jan-22 08:30N 41°20' E 002°09'0 0.0
2018-Jan-22 08:00N 41°20' E 002°09'0 0.0
2018-Jan-22 07:30N 41°20' E 002°09'0 0.0
2018-Jan-22 07:00N 41°20' E 002°09'0 0.0
2018-Jan-22 06:30N 41°20' E 002°09'0 0.0
2018-Jan-22 06:00N 41°20' E 002°09'0 0.0
2018-Jan-22 05:30N 41°20' E 002°09'0 0.0
2018-Jan-22 05:00N 41°20' E 002°09'0 0.0
2018-Jan-22 04:30N 41°20' E 002°09'0 0.0
2018-Jan-22 04:00N 41°20' E 002°09'0 0.0
2018-Jan-22 03:30N 41°20' E 002°09'0 0.0
2018-Jan-22 03:00N 41°20' E 002°09'0 0.0
2018-Jan-22 02:30N 41°20' E 002°09'0 0.0
2018-Jan-22 02:00N 41°20' E 002°09'0 0.0
2018-Jan-22 01:30N 41°20' E 002°09'0 0.0
2018-Jan-22 01:00N 41°20' E 002°09'0 0.0
2018-Jan-22 00:30N 41°20' E 002°09'0 0.0
2018-Jan-22 00:00N 41°20' E 002°09'0 0.0
2018-Jan-21 23:30N 41°20' E 002°09'0 0.0
2018-Jan-21 23:00N 41°20' E 002°09'0 0.0
2018-Jan-21 22:30N 41°20' E 002°09'0 0.0
2018-Jan-21 22:00N 41°20' E 002°09'2 3.3
2018-Jan-21 21:30N 41°19' E 002°10'1 2.5
2018-Jan-21 21:00N 41°19' E 002°12'0 0.4
2018-Jan-21 20:29N 41°19' E 002°12'0 0.1
2018-Jan-21 19:59N 41°19' E 002°12'0 0.1
2018-Jan-21 19:29N 41°19' E 002°12'0 0.1
2018-Jan-21 18:59N 41°19' E 002°12'0 0.0
2018-Jan-21 18:29N 41°19' E 002°12'0 0.0
2018-Jan-21 17:59N 41°19' E 002°12'0 0.0
2018-Jan-21 17:29N 41°19' E 002°12'0 0.0
2018-Jan-21 16:59N 41°19' E 002°12'0 0.1
2018-Jan-21 16:29N 41°19' E 002°12'0 0.0
2018-Jan-21 15:59N 41°19' E 002°12'0 0.1
2018-Jan-21 15:29N 41°19' E 002°12'0 0.1
2018-Jan-21 14:59N 41°19' E 002°12'0 0.1
2018-Jan-21 14:29N 41°19' E 002°12'0 0.0
2018-Jan-21 13:59N 41°19' E 002°12'0 0.0
2018-Jan-21 13:29N 41°19' E 002°12'0 0.1
2018-Jan-21 12:59N 41°19' E 002°12'0 0.1
2018-Jan-21 12:29N 41°19' E 002°12'0 0.0
2018-Jan-21 11:59N 41°19' E 002°12'0 0.1
2018-Jan-21 11:29N 41°19' E 002°12'0 0.0
2018-Jan-21 10:59N 41°19' E 002°12'0 0.0
2018-Jan-21 10:29N 41°19' E 002°12'0 0.0
2018-Jan-21 09:59N 41°19' E 002°12'0 0.0
2018-Jan-21 09:29N 41°19' E 002°12'0 0.1
2018-Jan-21 08:59N 41°19' E 002°12'0 0.1
2018-Jan-21 08:29N 41°19' E 002°12'0 0.0
2018-Jan-21 07:59N 41°19' E 002°12'0 0.0
2018-Jan-21 07:29N 41°19' E 002°12'0 0.2
2018-Jan-21 06:59N 41°19' E 002°12'0 0.0
2018-Jan-21 06:29N 41°19' E 002°12'0 0.2
2018-Jan-21 06:00N 41°19' E 002°12'2 5.0
2018-Jan-21 05:30N 41°19' E 002°15'4 7.8
2018-Jan-21 05:01N 41°21' E 002°20'4 8.1
2018-Jan-21 04:30N 41°23' E 002°24'4 8.3
2018-Jan-21 04:00N 41°26' E 002°28'4 8.2
2018-Jan-21 03:29N 41°28' E 002°33'4 8.1
2018-Jan-21 03:00N 41°30' E 002°37'4 8.5
2018-Jan-21 02:30N 41°33' E 002°42'13110.2
2018-Jan-20 13:44N 43°01' E 004°52'4 9.8
2018-Jan-20 13:19N 43°04' E 004°56'3 9.6
2018-Jan-20 13:00N 43°06' E 004°59'6 9.7
2018-Jan-20 12:26N 43°10' E 005°04'4 9.6
2018-Jan-20 11:59N 43°13' E 005°08'510.0
2018-Jan-20 11:30N 43°17' E 005°13'510.1
2018-Jan-20 11:00N 43°20' E 005°18'2 0.1
2018-Jan-19 11:51N 43°20' E 005°21'0 0.3
2018-Jan-19 11:30N 43°20' E 005°21'3 5.7
2018-Jan-19 11:00N 43°19' E 005°17'5 9.3
2018-Jan-19 10:30N 43°15' E 005°17'7811.6
2018-Jan-19 03:51N 43°00' E 007°01'413.0
2018-Jan-19 03:31N 43°00' E 007°07'713.2
2018-Jan-19 03:00N 43°01' E 007°16'913.5
2018-Jan-19 02:21N 43°02' E 007°28'512.9
2018-Jan-19 01:58N 43°02' E 007°35'612.6
2018-Jan-19 01:30N 43°02' E 007°43'6212.6
2018-Jan-18 20:36N 43°07' E 009°07'111.2
2018-Jan-18 20:29N 43°07' E 009°09'510.0
2018-Jan-18 20:00N 43°08' E 009°16'1311.1
2018-Jan-18 18:48N 43°08' E 009°34'3 9.9
2018-Jan-18 18:30N 43°06' E 009°37'1812.1
2018-Jan-18 17:03N 42°50' E 009°48'112.9
2018-Jan-18 17:00N 42°50' E 009°49'2412.8
2018-Jan-18 15:08N 42°36' E 010°14'1012.7
2018-Jan-18 14:20N 42°30' E 010°26'712.7
2018-Jan-18 13:49N 42°26' E 010°33'  

Dump ship's entire track history